Portada
METAR-TAF:

METAR-TAF

Aeropuertos :

Aeropuerto Internacional Hato

Curazao, Antillas Neerlandesas

latitud: 12-12N, longitud: 068-58W, altitud: 9 m

Observación

El informe se hizo hace 27 minutos, a las 18:00 UTC
Viento 14 kt del sureste
Temperatura 32°C
Humedad 59%
Presión 1012 hPa
Visibilidad 10 km o más
Cielo nuboso a una altura de 2300 ft

METAR: TNCC 211800Z AUTO 13014KT 9999 BKN023 32/23 Q1012 NOSIG

Hora: 14:27 (18:27 UTC)

Pronóstico

El informe se hizo hace 2 horas y 27 minutos, a las 16:00 UTC
Pronóstico válido del 21 a las 18 UTC al 22 a las 18 UTC
Viento 14 kt del este-sureste
Visibilidad 10 km o más
Nubes dispersas a una altura de 2200 ft

TAF: TNCC 211600Z 2118/2218 11014KT 9999 SCT022

Observaciones y pronósticos meteorológicos de más de 4000 aeropuertos (mensajes METAR y TAF).

Los puntos amarillos y rojos representan las estaciones disponibles.

Ponga el ratón en el punto deseado para ver el nombre de la estación.

Haga clic para ver las observaciones y los pronósticos meteorológicos.

Para cambiar el mapa : haga clic en los botones verdes con una cruz de color negro para hacer un zoom, en el botón verde con un guión para alejar o en las flechas verdes para mapas adyacentes.


METAR-TAF: